sensor_id;sensor_type;location;lat;lon;timestamp;P1;durP1;ratioP1;P2;durP2;ratioP2
41436;SDS011;27178;49.460;10.850;2024-02-16T00:00:16;3.28;;;2.97;;
41436;SDS011;27178;49.460;10.850;2024-02-16T00:02:47;3.83;;;3.20;;
41436;SDS011;27178;49.460;10.850;2024-02-16T00:05:15;3.38;;;3.08;;
41436;SDS011;27178;49.460;10.850;2024-02-16T00:07:43;2.60;;;2.40;;
41436;SDS011;27178;49.460;10.850;2024-02-16T00:10:12;3.20;;;2.95;;
41436;SDS011;27178;49.460;10.850;2024-02-16T00:12:40;3.28;;;2.97;;
41436;SDS011;27178;49.460;10.850;2024-02-16T00:15:09;5.50;;;3.70;;
41436;SDS011;27178;49.460;10.850;2024-02-16T00:17:38;3.95;;;2.85;;
41436;SDS011;27178;49.460;10.850;2024-02-16T00:20:08;3.55;;;2.90;;
41436;SDS011;27178;49.460;10.850;2024-02-16T00:22:39;3.08;;;2.60;;
41436;SDS011;27178;49.460;10.850;2024-02-16T00:25:08;3.95;;;2.80;;
41436;SDS011;27178;49.460;10.850;2024-02-16T00:27:36;2.78;;;2.38;;
41436;SDS011;27178;49.460;10.850;2024-02-16T00:30:05;3.15;;;2.83;;
41436;SDS011;27178;49.460;10.850;2024-02-16T00:32:35;2.88;;;2.63;;
41436;SDS011;27178;49.460;10.850;2024-02-16T00:35:04;2.92;;;2.72;;
41436;SDS011;27178;49.460;10.850;2024-02-16T00:37:34;3.45;;;3.00;;
41436;SDS011;27178;49.460;10.850;2024-02-16T00:40:02;3.28;;;2.80;;
41436;SDS011;27178;49.460;10.850;2024-02-16T00:42:32;3.00;;;2.70;;
41436;SDS011;27178;49.460;10.850;2024-02-16T00:45:01;4.45;;;3.05;;
41436;SDS011;27178;49.460;10.850;2024-02-16T00:47:30;2.78;;;2.58;;
41436;SDS011;27178;49.460;10.850;2024-02-16T00:49:58;3.03;;;2.72;;
41436;SDS011;27178;49.460;10.850;2024-02-16T00:52:27;3.00;;;2.67;;
41436;SDS011;27178;49.460;10.850;2024-02-16T00:54:56;3.20;;;2.85;;
41436;SDS011;27178;49.460;10.850;2024-02-16T00:57:25;3.05;;;2.75;;
41436;SDS011;27178;49.460;10.850;2024-02-16T00:59:53;3.22;;;2.92;;
41436;SDS011;27178;49.460;10.850;2024-02-16T01:02:22;3.22;;;2.70;;
41436;SDS011;27178;49.460;10.850;2024-02-16T01:04:55;3.17;;;2.85;;
41436;SDS011;27178;49.460;10.850;2024-02-16T01:07:29;2.75;;;2.35;;
41436;SDS011;27178;49.460;10.850;2024-02-16T01:10:01;2.65;;;2.45;;
41436;SDS011;27178;49.460;10.850;2024-02-16T01:12:30;3.33;;;2.58;;
41436;SDS011;27178;49.460;10.850;2024-02-16T01:14:58;2.60;;;2.40;;
41436;SDS011;27178;49.460;10.850;2024-02-16T01:17:27;2.38;;;2.17;;
41436;SDS011;27178;49.460;10.850;2024-02-16T01:19:56;2.47;;;2.28;;
41436;SDS011;27178;49.460;10.850;2024-02-16T01:22:25;2.55;;;2.35;;
41436;SDS011;27178;49.460;10.850;2024-02-16T01:24:55;2.60;;;2.40;;
41436;SDS011;27178;49.460;10.850;2024-02-16T01:27:25;3.35;;;2.35;;
41436;SDS011;27178;49.460;10.850;2024-02-16T01:29:55;3.25;;;2.70;;
41436;SDS011;27178;49.460;10.850;2024-02-16T01:32:23;2.80;;;2.58;;
41436;SDS011;27178;49.460;10.850;2024-02-16T01:34:51;3.63;;;2.42;;
41436;SDS011;27178;49.460;10.850;2024-02-16T01:37:20;3.97;;;2.53;;
41436;SDS011;27178;49.460;10.850;2024-02-16T01:39:48;2.80;;;2.50;;
41436;SDS011;27178;49.460;10.850;2024-02-16T01:42:16;2.65;;;2.38;;
41436;SDS011;27178;49.460;10.850;2024-02-16T01:44:46;2.72;;;2.53;;
41436;SDS011;27178;49.460;10.850;2024-02-16T01:47:15;3.72;;;2.80;;
41436;SDS011;27178;49.460;10.850;2024-02-16T01:49:46;3.20;;;2.90;;
41436;SDS011;27178;49.460;10.850;2024-02-16T01:52:14;2.75;;;2.55;;
41436;SDS011;27178;49.460;10.850;2024-02-16T01:54:43;2.92;;;2.72;;
41436;SDS011;27178;49.460;10.850;2024-02-16T01:57:11;4.82;;;3.40;;
41436;SDS011;27178;49.460;10.850;2024-02-16T01:59:40;3.78;;;3.05;;
41436;SDS011;27178;49.460;10.850;2024-02-16T02:02:10;2.78;;;2.58;;
41436;SDS011;27178;49.460;10.850;2024-02-16T02:04:39;3.40;;;2.75;;
41436;SDS011;27178;49.460;10.850;2024-02-16T02:07:11;2.72;;;2.53;;
41436;SDS011;27178;49.460;10.850;2024-02-16T02:09:40;2.67;;;2.47;;
41436;SDS011;27178;49.460;10.850;2024-02-16T02:12:09;3.08;;;2.75;;
41436;SDS011;27178;49.460;10.850;2024-02-16T02:14:38;2.63;;;2.42;;
41436;SDS011;27178;49.460;10.850;2024-02-16T02:17:06;2.67;;;2.38;;
41436;SDS011;27178;49.460;10.850;2024-02-16T02:19:36;2.97;;;2.75;;
41436;SDS011;27178;49.460;10.850;2024-02-16T02:22:09;3.38;;;3.08;;
41436;SDS011;27178;49.460;10.850;2024-02-16T02:24:40;4.05;;;3.60;;
41436;SDS011;27178;49.460;10.850;2024-02-16T02:27:10;3.30;;;3.00;;
41436;SDS011;27178;49.460;10.850;2024-02-16T02:29:39;5.50;;;3.40;;
41436;SDS011;27178;49.460;10.850;2024-02-16T02:32:08;3.53;;;3.22;;
41436;SDS011;27178;49.460;10.850;2024-02-16T02:34:37;3.55;;;3.25;;
41436;SDS011;27178;49.460;10.850;2024-02-16T02:37:06;2.50;;;2.30;;
41436;SDS011;27178;49.460;10.850;2024-02-16T02:39:35;2.90;;;2.60;;
41436;SDS011;27178;49.460;10.850;2024-02-16T02:42:04;3.50;;;2.92;;
41436;SDS011;27178;49.460;10.850;2024-02-16T02:44:33;2.95;;;2.70;;
41436;SDS011;27178;49.460;10.850;2024-02-16T02:47:02;2.67;;;2.45;;
41436;SDS011;27178;49.460;10.850;2024-02-16T02:49:30;4.70;;;2.55;;
41436;SDS011;27178;49.460;10.850;2024-02-16T02:52:02;5.03;;;2.25;;
41436;SDS011;27178;49.460;10.850;2024-02-16T02:54:30;2.88;;;2.67;;
41436;SDS011;27178;49.460;10.850;2024-02-16T02:57:01;2.35;;;2.15;;
41436;SDS011;27178;49.460;10.850;2024-02-16T03:03:10;2.33;;;2.13;;
41436;SDS011;27178;49.460;10.850;2024-02-16T03:05:41;2.40;;;2.20;;
41436;SDS011;27178;49.460;10.850;2024-02-16T03:08:10;2.53;;;2.33;;
41436;SDS011;27178;49.460;10.850;2024-02-16T03:10:38;2.30;;;2.10;;
41436;SDS011;27178;49.460;10.850;2024-02-16T03:13:07;2.30;;;2.10;;
41436;SDS011;27178;49.460;10.850;2024-02-16T03:15:36;2.50;;;2.30;;
41436;SDS011;27178;49.460;10.850;2024-02-16T03:18:05;2.45;;;2.25;;
41436;SDS011;27178;49.460;10.850;2024-02-16T03:20:36;2.60;;;2.38;;
41436;SDS011;27178;49.460;10.850;2024-02-16T03:23:04;2.40;;;2.20;;
41436;SDS011;27178;49.460;10.850;2024-02-16T03:25:32;4.45;;;2.78;;
41436;SDS011;27178;49.460;10.850;2024-02-16T03:28:01;2.30;;;2.10;;
41436;SDS011;27178;49.460;10.850;2024-02-16T03:30:30;2.47;;;2.28;;
41436;SDS011;27178;49.460;10.850;2024-02-16T03:32:58;2.80;;;2.40;;
41436;SDS011;27178;49.460;10.850;2024-02-16T03:35:27;3.08;;;2.13;;
41436;SDS011;27178;49.460;10.850;2024-02-16T03:37:55;2.00;;;1.90;;
41436;SDS011;27178;49.460;10.850;2024-02-16T03:40:24;2.78;;;2.45;;
41436;SDS011;27178;49.460;10.850;2024-02-16T03:42:52;2.95;;;2.58;;
41436;SDS011;27178;49.460;10.850;2024-02-16T03:45:21;2.80;;;2.10;;
41436;SDS011;27178;49.460;10.850;2024-02-16T03:47:51;4.05;;;2.47;;
41436;SDS011;27178;49.460;10.850;2024-02-16T03:50:20;3.03;;;2.30;;
41436;SDS011;27178;49.460;10.850;2024-02-16T03:52:49;2.95;;;2.30;;
41436;SDS011;27178;49.460;10.850;2024-02-16T03:55:17;2.40;;;2.20;;
41436;SDS011;27178;49.460;10.850;2024-02-16T03:57:46;2.47;;;2.28;;
41436;SDS011;27178;49.460;10.850;2024-02-16T04:00:15;3.63;;;2.28;;
41436;SDS011;27178;49.460;10.850;2024-02-16T04:02:43;2.63;;;2.28;;
41436;SDS011;27178;49.460;10.850;2024-02-16T04:05:13;2.45;;;2.20;;
41436;SDS011;27178;49.460;10.850;2024-02-16T04:07:42;3.20;;;2.40;;
41436;SDS011;27178;49.460;10.850;2024-02-16T04:10:10;2.20;;;2.00;;
41436;SDS011;27178;49.460;10.850;2024-02-16T04:12:39;2.20;;;2.00;;
41436;SDS011;27178;49.460;10.850;2024-02-16T04:15:07;2.85;;;2.40;;
41436;SDS011;27178;49.460;10.850;2024-02-16T04:17:36;2.22;;;2.03;;
41436;SDS011;27178;49.460;10.850;2024-02-16T04:20:05;2.15;;;1.95;;
41436;SDS011;27178;49.460;10.850;2024-02-16T04:22:37;3.33;;;2.03;;
41436;SDS011;27178;49.460;10.850;2024-02-16T04:25:06;2.25;;;2.05;;
41436;SDS011;27178;49.460;10.850;2024-02-16T04:27:35;2.55;;;2.35;;
41436;SDS011;27178;49.460;10.850;2024-02-16T04:30:04;2.30;;;2.00;;
41436;SDS011;27178;49.460;10.850;2024-02-16T04:32:34;2.47;;;1.92;;
41436;SDS011;27178;49.460;10.850;2024-02-16T04:35:02;3.42;;;2.22;;
41436;SDS011;27178;49.460;10.850;2024-02-16T04:37:31;2.50;;;2.30;;
41436;SDS011;27178;49.460;10.850;2024-02-16T04:40:01;2.90;;;2.60;;
41436;SDS011;27178;49.460;10.850;2024-02-16T04:42:29;2.63;;;2.42;;
41436;SDS011;27178;49.460;10.850;2024-02-16T04:44:58;2.83;;;2.40;;
41436;SDS011;27178;49.460;10.850;2024-02-16T04:47:31;2.63;;;2.42;;
41436;SDS011;27178;49.460;10.850;2024-02-16T04:49:59;2.30;;;1.98;;
41436;SDS011;27178;49.460;10.850;2024-02-16T04:52:28;2.85;;;2.65;;
41436;SDS011;27178;49.460;10.850;2024-02-16T04:54:56;2.70;;;2.38;;
41436;SDS011;27178;49.460;10.850;2024-02-16T04:57:26;2.80;;;2.40;;
41436;SDS011;27178;49.460;10.850;2024-02-16T04:59:54;2.65;;;2.35;;
41436;SDS011;27178;49.460;10.850;2024-02-16T05:02:22;3.55;;;2.35;;
41436;SDS011;27178;49.460;10.850;2024-02-16T05:04:51;3.20;;;2.20;;
41436;SDS011;27178;49.460;10.850;2024-02-16T05:07:19;2.80;;;2.40;;
41436;SDS011;27178;49.460;10.850;2024-02-16T05:09:47;2.53;;;2.25;;
41436;SDS011;27178;49.460;10.850;2024-02-16T05:12:22;3.38;;;2.28;;
41436;SDS011;27178;49.460;10.850;2024-02-16T05:14:51;3.00;;;2.70;;
41436;SDS011;27178;49.460;10.850;2024-02-16T05:17:19;2.70;;;2.40;;
41436;SDS011;27178;49.460;10.850;2024-02-16T05:19:49;2.90;;;2.60;;
41436;SDS011;27178;49.460;10.850;2024-02-16T05:22:17;3.78;;;2.67;;
41436;SDS011;27178;49.460;10.850;2024-02-16T05:24:46;2.75;;;2.40;;
41436;SDS011;27178;49.460;10.850;2024-02-16T05:27:14;2.78;;;2.50;;
41436;SDS011;27178;49.460;10.850;2024-02-16T05:29:43;2.90;;;2.60;;
41436;SDS011;27178;49.460;10.850;2024-02-16T05:32:13;2.75;;;2.55;;
41436;SDS011;27178;49.460;10.850;2024-02-16T05:34:42;4.53;;;2.70;;
41436;SDS011;27178;49.460;10.850;2024-02-16T05:37:10;2.60;;;2.40;;
41436;SDS011;27178;49.460;10.850;2024-02-16T05:39:38;6.45;;;3.28;;
41436;SDS011;27178;49.460;10.850;2024-02-16T05:42:20;3.17;;;2.40;;
41436;SDS011;27178;49.460;10.850;2024-02-16T05:44:49;3.75;;;2.65;;
41436;SDS011;27178;49.460;10.850;2024-02-16T05:47:20;2.65;;;2.45;;
41436;SDS011;27178;49.460;10.850;2024-02-16T05:49:49;4.13;;;2.55;;
41436;SDS011;27178;49.460;10.850;2024-02-16T05:52:17;3.15;;;2.55;;
41436;SDS011;27178;49.460;10.850;2024-02-16T05:54:47;3.08;;;2.70;;
41436;SDS011;27178;49.460;10.850;2024-02-16T05:57:16;3.53;;;3.22;;
41436;SDS011;27178;49.460;10.850;2024-02-16T05:59:45;3.00;;;2.80;;
41436;SDS011;27178;49.460;10.850;2024-02-16T06:02:16;2.97;;;2.78;;
41436;SDS011;27178;49.460;10.850;2024-02-16T06:04:45;3.78;;;2.53;;
41436;SDS011;27178;49.460;10.850;2024-02-16T06:07:14;2.50;;;2.30;;
41436;SDS011;27178;49.460;10.850;2024-02-16T06:09:42;3.35;;;3.05;;
41436;SDS011;27178;49.460;10.850;2024-02-16T06:12:10;3.13;;;2.42;;
41436;SDS011;27178;49.460;10.850;2024-02-16T06:14:39;3.20;;;1.98;;
41436;SDS011;27178;49.460;10.850;2024-02-16T06:17:06;2.80;;;2.60;;
41436;SDS011;27178;49.460;10.850;2024-02-16T06:19:35;2.72;;;2.53;;
41436;SDS011;27178;49.460;10.850;2024-02-16T06:22:05;3.72;;;3.00;;
41436;SDS011;27178;49.460;10.850;2024-02-16T06:24:34;3.42;;;3.13;;
41436;SDS011;27178;49.460;10.850;2024-02-16T06:27:03;4.00;;;3.70;;
41436;SDS011;27178;49.460;10.850;2024-02-16T06:29:31;3.58;;;3.28;;
41436;SDS011;27178;49.460;10.850;2024-02-16T06:32:00;3.67;;;3.38;;
41436;SDS011;27178;49.460;10.850;2024-02-16T06:34:29;3.58;;;3.28;;
41436;SDS011;27178;49.460;10.850;2024-02-16T06:36:58;3.53;;;3.22;;
41436;SDS011;27178;49.460;10.850;2024-02-16T06:39:28;3.85;;;3.47;;
41436;SDS011;27178;49.460;10.850;2024-02-16T06:41:58;4.00;;;3.38;;
41436;SDS011;27178;49.460;10.850;2024-02-16T06:44:26;4.13;;;3.83;;
41436;SDS011;27178;49.460;10.850;2024-02-16T06:46:55;4.07;;;3.35;;
41436;SDS011;27178;49.460;10.850;2024-02-16T06:49:23;4.22;;;3.83;;
41436;SDS011;27178;49.460;10.850;2024-02-16T06:51:52;3.38;;;3.15;;
41436;SDS011;27178;49.460;10.850;2024-02-16T06:54:21;4.80;;;4.30;;
41436;SDS011;27178;49.460;10.850;2024-02-16T06:56:52;4.30;;;3.90;;
41436;SDS011;27178;49.460;10.850;2024-02-16T06:59:21;4.30;;;3.92;;
41436;SDS011;27178;49.460;10.850;2024-02-16T07:01:49;3.88;;;3.58;;
41436;SDS011;27178;49.460;10.850;2024-02-16T07:04:17;3.45;;;3.15;;
41436;SDS011;27178;49.460;10.850;2024-02-16T07:06:45;4.18;;;3.85;;
41436;SDS011;27178;49.460;10.850;2024-02-16T07:09:14;5.68;;;5.18;;
41436;SDS011;27178;49.460;10.850;2024-02-16T07:11:42;5.50;;;4.88;;
41436;SDS011;27178;49.460;10.850;2024-02-16T07:14:18;4.82;;;4.38;;
41436;SDS011;27178;49.460;10.850;2024-02-16T07:16:46;4.45;;;4.05;;
41436;SDS011;27178;49.460;10.850;2024-02-16T07:19:14;5.00;;;3.95;;
41436;SDS011;27178;49.460;10.850;2024-02-16T07:21:44;4.68;;;4.18;;
41436;SDS011;27178;49.460;10.850;2024-02-16T07:24:13;3.90;;;3.60;;
41436;SDS011;27178;49.460;10.850;2024-02-16T07:26:41;4.00;;;3.60;;
41436;SDS011;27178;49.460;10.850;2024-02-16T07:29:09;3.88;;;3.58;;
41436;SDS011;27178;49.460;10.850;2024-02-16T07:31:41;4.50;;;3.60;;
41436;SDS011;27178;49.460;10.850;2024-02-16T07:34:09;4.57;;;3.95;;
41436;SDS011;27178;49.460;10.850;2024-02-16T07:36:38;3.75;;;3.45;;
41436;SDS011;27178;49.460;10.850;2024-02-16T07:39:06;4.60;;;4.20;;
41436;SDS011;27178;49.460;10.850;2024-02-16T07:41:38;4.22;;;3.83;;
41436;SDS011;27178;49.460;10.850;2024-02-16T07:44:07;4.30;;;3.90;;
41436;SDS011;27178;49.460;10.850;2024-02-16T07:46:40;5.50;;;4.93;;
41436;SDS011;27178;49.460;10.850;2024-02-16T07:49:10;4.70;;;4.10;;
41436;SDS011;27178;49.460;10.850;2024-02-16T07:51:39;3.85;;;3.53;;
41436;SDS011;27178;49.460;10.850;2024-02-16T07:54:07;5.00;;;4.40;;
41436;SDS011;27178;49.460;10.850;2024-02-16T07:56:36;7.57;;;4.13;;
41436;SDS011;27178;49.460;10.850;2024-02-16T07:59:04;7.15;;;6.35;;
41436;SDS011;27178;49.460;10.850;2024-02-16T08:01:33;6.90;;;5.47;;
41436;SDS011;27178;49.460;10.850;2024-02-16T08:04:02;4.85;;;4.45;;
41436;SDS011;27178;49.460;10.850;2024-02-16T08:06:32;5.25;;;4.75;;
41436;SDS011;27178;49.460;10.850;2024-02-16T08:09:01;5.20;;;4.70;;
41436;SDS011;27178;49.460;10.850;2024-02-16T08:11:29;5.28;;;4.78;;
41436;SDS011;27178;49.460;10.850;2024-02-16T08:13:58;5.03;;;4.63;;
41436;SDS011;27178;49.460;10.850;2024-02-16T08:16:27;4.97;;;4.57;;
41436;SDS011;27178;49.460;10.850;2024-02-16T08:18:56;5.00;;;4.60;;
41436;SDS011;27178;49.460;10.850;2024-02-16T08:21:26;5.20;;;4.60;;
41436;SDS011;27178;49.460;10.850;2024-02-16T08:23:54;5.28;;;4.78;;
41436;SDS011;27178;49.460;10.850;2024-02-16T08:26:22;4.57;;;4.22;;
41436;SDS011;27178;49.460;10.850;2024-02-16T08:28:50;4.93;;;4.43;;
41436;SDS011;27178;49.460;10.850;2024-02-16T08:31:19;5.57;;;5.07;;
41436;SDS011;27178;49.460;10.850;2024-02-16T08:33:48;6.15;;;4.57;;
41436;SDS011;27178;49.460;10.850;2024-02-16T08:36:16;5.55;;;5.05;;
41436;SDS011;27178;49.460;10.850;2024-02-16T08:38:47;4.78;;;4.40;;
41436;SDS011;27178;49.460;10.850;2024-02-16T08:41:15;5.10;;;4.70;;
41436;SDS011;27178;49.460;10.850;2024-02-16T08:43:44;5.75;;;5.30;;
41436;SDS011;27178;49.460;10.850;2024-02-16T08:46:12;6.20;;;4.53;;
41436;SDS011;27178;49.460;10.850;2024-02-16T08:48:40;5.70;;;5.20;;
41436;SDS011;27178;49.460;10.850;2024-02-16T08:51:08;6.20;;;5.60;;
41436;SDS011;27178;49.460;10.850;2024-02-16T08:53:37;5.88;;;4.50;;
41436;SDS011;27178;49.460;10.850;2024-02-16T08:56:10;5.45;;;4.95;;
41436;SDS011;27178;49.460;10.850;2024-02-16T08:58:38;6.00;;;5.43;;
41436;SDS011;27178;49.460;10.850;2024-02-16T09:01:07;5.63;;;5.03;;
41436;SDS011;27178;49.460;10.850;2024-02-16T09:03:35;5.30;;;4.80;;
41436;SDS011;27178;49.460;10.850;2024-02-16T09:06:06;6.00;;;5.50;;
41436;SDS011;27178;49.460;10.850;2024-02-16T09:08:35;5.47;;;4.97;;
41436;SDS011;27178;49.460;10.850;2024-02-16T09:11:03;5.32;;;4.90;;
41436;SDS011;27178;49.460;10.850;2024-02-16T09:13:34;6.35;;;5.47;;
41436;SDS011;27178;49.460;10.850;2024-02-16T09:16:07;6.18;;;5.60;;
41436;SDS011;27178;49.460;10.850;2024-02-16T09:18:35;5.05;;;4.65;;
41436;SDS011;27178;49.460;10.850;2024-02-16T09:21:04;5.95;;;5.13;;
41436;SDS011;27178;49.460;10.850;2024-02-16T09:23:33;5.85;;;5.35;;
41436;SDS011;27178;49.460;10.850;2024-02-16T09:26:02;5.70;;;5.20;;
41436;SDS011;27178;49.460;10.850;2024-02-16T09:28:31;6.00;;;5.40;;
41436;SDS011;27178;49.460;10.850;2024-02-16T09:31:01;5.90;;;5.40;;
41436;SDS011;27178;49.460;10.850;2024-02-16T09:33:30;5.60;;;5.18;;
41436;SDS011;27178;49.460;10.850;2024-02-16T09:35:58;5.50;;;5.00;;
41436;SDS011;27178;49.460;10.850;2024-02-16T09:38:27;5.85;;;5.25;;
41436;SDS011;27178;49.460;10.850;2024-02-16T09:40:55;6.90;;;6.30;;
41436;SDS011;27178;49.460;10.850;2024-02-16T09:43:27;6.07;;;5.47;;
41436;SDS011;27178;49.460;10.850;2024-02-16T09:45:57;5.78;;;5.28;;
41436;SDS011;27178;49.460;10.850;2024-02-16T09:48:28;6.68;;;5.93;;
41436;SDS011;27178;49.460;10.850;2024-02-16T09:50:57;7.20;;;6.38;;
41436;SDS011;27178;49.460;10.850;2024-02-16T09:53:27;5.70;;;5.20;;
41436;SDS011;27178;49.460;10.850;2024-02-16T09:55:56;7.68;;;5.85;;
41436;SDS011;27178;49.460;10.850;2024-02-16T09:58:24;5.32;;;4.85;;
41436;SDS011;27178;49.460;10.850;2024-02-16T10:00:53;6.13;;;5.53;;
41436;SDS011;27178;49.460;10.850;2024-02-16T10:03:24;6.03;;;5.57;;
41436;SDS011;27178;49.460;10.850;2024-02-16T10:06:05;6.20;;;5.65;;
41436;SDS011;27178;49.460;10.850;2024-02-16T10:08:34;9.63;;;6.50;;
41436;SDS011;27178;49.460;10.850;2024-02-16T10:11:15;6.45;;;5.40;;
41436;SDS011;27178;49.460;10.850;2024-02-16T10:13:54;6.32;;;5.80;;
41436;SDS011;27178;49.460;10.850;2024-02-16T10:16:24;7.65;;;6.95;;
41436;SDS011;27178;49.460;10.850;2024-02-16T10:18:54;6.93;;;6.22;;
41436;SDS011;27178;49.460;10.850;2024-02-16T10:21:25;6.90;;;6.25;;
41436;SDS011;27178;49.460;10.850;2024-02-16T10:24:07;6.93;;;6.18;;
41436;SDS011;27178;49.460;10.850;2024-02-16T10:26:36;5.95;;;5.45;;
41436;SDS011;27178;49.460;10.850;2024-02-16T10:29:07;7.03;;;6.07;;
41436;SDS011;27178;49.460;10.850;2024-02-16T10:31:37;6.55;;;6.05;;
41436;SDS011;27178;49.460;10.850;2024-02-16T10:34:05;6.45;;;5.70;;
41436;SDS011;27178;49.460;10.850;2024-02-16T10:36:37;5.75;;;5.25;;
41436;SDS011;27178;49.460;10.850;2024-02-16T10:39:09;5.72;;;5.22;;
41436;SDS011;27178;49.460;10.850;2024-02-16T10:41:38;7.50;;;6.18;;
41436;SDS011;27178;49.460;10.850;2024-02-16T10:44:08;6.13;;;5.63;;
41436;SDS011;27178;49.460;10.850;2024-02-16T10:46:37;6.75;;;5.38;;
41436;SDS011;27178;49.460;10.850;2024-02-16T10:49:06;6.95;;;5.38;;
41436;SDS011;27178;49.460;10.850;2024-02-16T10:51:36;5.78;;;5.22;;
41436;SDS011;27178;49.460;10.850;2024-02-16T10:54:07;5.47;;;4.97;;
41436;SDS011;27178;49.460;10.850;2024-02-16T10:56:40;6.15;;;5.18;;
41436;SDS011;27178;49.460;10.850;2024-02-16T10:59:10;5.38;;;4.88;;
41436;SDS011;27178;49.460;10.850;2024-02-16T11:01:38;5.60;;;5.10;;
41436;SDS011;27178;49.460;10.850;2024-02-16T11:04:10;5.47;;;5.05;;
41436;SDS011;27178;49.460;10.850;2024-02-16T11:06:44;5.50;;;5.00;;
41436;SDS011;27178;49.460;10.850;2024-02-16T11:09:29;4.80;;;4.40;;
41436;SDS011;27178;49.460;10.850;2024-02-16T11:12:03;6.22;;;5.70;;
41436;SDS011;27178;49.460;10.850;2024-02-16T11:14:35;6.45;;;5.85;;
41436;SDS011;27178;49.460;10.850;2024-02-16T11:17:07;5.75;;;5.25;;
41436;SDS011;27178;49.460;10.850;2024-02-16T11:19:37;6.40;;;5.80;;
41436;SDS011;27178;49.460;10.850;2024-02-16T11:22:08;6.67;;;5.70;;
41436;SDS011;27178;49.460;10.850;2024-02-16T11:24:43;5.78;;;5.28;;
41436;SDS011;27178;49.460;10.850;2024-02-16T11:27:12;7.68;;;5.57;;
41436;SDS011;27178;49.460;10.850;2024-02-16T11:29:42;5.85;;;5.28;;
41436;SDS011;27178;49.460;10.850;2024-02-16T11:32:10;6.63;;;5.97;;
41436;SDS011;27178;49.460;10.850;2024-02-16T11:34:39;7.13;;;5.15;;
41436;SDS011;27178;49.460;10.850;2024-02-16T11:37:07;5.90;;;5.38;;
41436;SDS011;27178;49.460;10.850;2024-02-16T11:39:35;6.00;;;5.43;;
41436;SDS011;27178;49.460;10.850;2024-02-16T11:42:06;5.78;;;5.18;;
41436;SDS011;27178;49.460;10.850;2024-02-16T11:44:37;6.60;;;6.00;;
41436;SDS011;27178;49.460;10.850;2024-02-16T11:47:08;6.43;;;5.28;;
41436;SDS011;27178;49.460;10.850;2024-02-16T11:49:39;6.18;;;5.68;;
41436;SDS011;27178;49.460;10.850;2024-02-16T11:52:08;6.22;;;5.63;;
41436;SDS011;27178;49.460;10.850;2024-02-16T11:54:37;5.97;;;5.45;;
41436;SDS011;27178;49.460;10.850;2024-02-16T11:57:07;7.00;;;5.70;;
41436;SDS011;27178;49.460;10.850;2024-02-16T11:59:35;5.85;;;5.35;;
41436;SDS011;27178;49.460;10.850;2024-02-16T12:02:04;5.43;;;5.03;;
41436;SDS011;27178;49.460;10.850;2024-02-16T12:04:32;5.25;;;4.85;;
41436;SDS011;27178;49.460;10.850;2024-02-16T12:07:12;6.50;;;5.90;;
41436;SDS011;27178;49.460;10.850;2024-02-16T12:09:42;5.90;;;5.40;;
41436;SDS011;27178;49.460;10.850;2024-02-16T12:12:11;5.93;;;5.43;;
41436;SDS011;27178;49.460;10.850;2024-02-16T12:14:40;6.13;;;5.13;;
41436;SDS011;27178;49.460;10.850;2024-02-16T12:17:08;6.00;;;5.50;;
41436;SDS011;27178;49.460;10.850;2024-02-16T12:19:36;5.05;;;4.65;;
41436;SDS011;27178;49.460;10.850;2024-02-16T12:22:10;6.15;;;5.53;;
41436;SDS011;27178;49.460;10.850;2024-02-16T12:24:44;5.90;;;5.40;;
41436;SDS011;27178;49.460;10.850;2024-02-16T12:27:13;6.30;;;5.68;;
41436;SDS011;27178;49.460;10.850;2024-02-16T12:29:42;6.05;;;5.45;;
41436;SDS011;27178;49.460;10.850;2024-02-16T12:32:11;5.90;;;5.40;;
41436;SDS011;27178;49.460;10.850;2024-02-16T12:34:44;6.13;;;5.10;;
41436;SDS011;27178;49.460;10.850;2024-02-16T12:37:12;5.72;;;5.22;;
41436;SDS011;27178;49.460;10.850;2024-02-16T12:39:40;6.05;;;5.43;;
41436;SDS011;27178;49.460;10.850;2024-02-16T12:42:09;5.85;;;5.35;;
41436;SDS011;27178;49.460;10.850;2024-02-16T12:44:40;5.10;;;4.70;;
41436;SDS011;27178;49.460;10.850;2024-02-16T12:47:08;5.82;;;5.32;;
41436;SDS011;27178;49.460;10.850;2024-02-16T12:49:36;5.50;;;5.00;;
41436;SDS011;27178;49.460;10.850;2024-02-16T12:52:05;5.00;;;4.60;;
41436;SDS011;27178;49.460;10.850;2024-02-16T12:54:34;6.03;;;5.53;;
41436;SDS011;27178;49.460;10.850;2024-02-16T12:57:03;4.95;;;4.50;;
41436;SDS011;27178;49.460;10.850;2024-02-16T12:59:31;4.80;;;4.38;;
41436;SDS011;27178;49.460;10.850;2024-02-16T13:02:00;5.70;;;5.07;;
41436;SDS011;27178;49.460;10.850;2024-02-16T13:04:29;5.57;;;5.07;;
41436;SDS011;27178;49.460;10.850;2024-02-16T13:06:59;5.88;;;5.38;;
41436;SDS011;27178;49.460;10.850;2024-02-16T13:09:27;5.35;;;4.95;;
41436;SDS011;27178;49.460;10.850;2024-02-16T13:11:56;5.20;;;4.78;;
41436;SDS011;27178;49.460;10.850;2024-02-16T13:14:24;5.50;;;5.00;;
41436;SDS011;27178;49.460;10.850;2024-02-16T13:16:53;5.78;;;5.22;;
41436;SDS011;27178;49.460;10.850;2024-02-16T13:19:23;5.43;;;4.93;;
41436;SDS011;27178;49.460;10.850;2024-02-16T13:21:51;4.80;;;4.40;;
41436;SDS011;27178;49.460;10.850;2024-02-16T13:24:20;5.00;;;4.60;;
41436;SDS011;27178;49.460;10.850;2024-02-16T13:26:49;6.13;;;4.80;;
41436;SDS011;27178;49.460;10.850;2024-02-16T13:29:17;5.47;;;5.05;;
41436;SDS011;27178;49.460;10.850;2024-02-16T13:31:45;5.93;;;5.43;;
41436;SDS011;27178;49.460;10.850;2024-02-16T13:34:14;5.65;;;5.15;;
41436;SDS011;27178;49.460;10.850;2024-02-16T13:36:43;5.47;;;4.97;;
41436;SDS011;27178;49.460;10.850;2024-02-16T13:39:12;5.72;;;5.22;;
41436;SDS011;27178;49.460;10.850;2024-02-16T13:41:42;5.55;;;4.97;;
41436;SDS011;27178;49.460;10.850;2024-02-16T13:44:13;4.97;;;4.57;;
41436;SDS011;27178;49.460;10.850;2024-02-16T13:46:41;5.03;;;4.53;;
41436;SDS011;27178;49.460;10.850;2024-02-16T13:49:10;7.20;;;5.50;;
41436;SDS011;27178;49.460;10.850;2024-02-16T13:51:38;6.20;;;5.10;;
41436;SDS011;27178;49.460;10.850;2024-02-16T13:54:07;6.57;;;5.68;;
41436;SDS011;27178;49.460;10.850;2024-02-16T13:56:36;7.35;;;5.75;;
41436;SDS011;27178;49.460;10.850;2024-02-16T13:59:05;6.90;;;6.30;;
41436;SDS011;27178;49.460;10.850;2024-02-16T14:01:34;6.70;;;5.88;;
41436;SDS011;27178;49.460;10.850;2024-02-16T14:04:03;7.10;;;5.63;;
41436;SDS011;27178;49.460;10.850;2024-02-16T14:06:32;5.95;;;5.45;;
41436;SDS011;27178;49.460;10.850;2024-02-16T14:09:02;5.68;;;5.13;;
41436;SDS011;27178;49.460;10.850;2024-02-16T14:11:50;6.00;;;5.35;;
41436;SDS011;27178;49.460;10.850;2024-02-16T14:14:20;5.57;;;4.97;;
41436;SDS011;27178;49.460;10.850;2024-02-16T14:17:02;5.72;;;4.97;;
41436;SDS011;27178;49.460;10.850;2024-02-16T14:19:31;5.32;;;4.82;;
41436;SDS011;27178;49.460;10.850;2024-02-16T14:22:01;10.90;;;4.68;;
41436;SDS011;27178;49.460;10.850;2024-02-16T14:24:29;5.10;;;4.68;;
41436;SDS011;27178;49.460;10.850;2024-02-16T14:26:59;5.20;;;4.65;;
41436;SDS011;27178;49.460;10.850;2024-02-16T14:29:28;4.63;;;4.22;;
41436;SDS011;27178;49.460;10.850;2024-02-16T14:31:56;5.00;;;4.60;;
41436;SDS011;27178;49.460;10.850;2024-02-16T14:34:24;5.55;;;4.43;;
41436;SDS011;27178;49.460;10.850;2024-02-16T14:36:54;5.07;;;4.68;;
41436;SDS011;27178;49.460;10.850;2024-02-16T14:39:22;5.03;;;4.63;;
41436;SDS011;27178;49.460;10.850;2024-02-16T14:41:52;5.18;;;4.68;;
41436;SDS011;27178;49.460;10.850;2024-02-16T14:44:21;5.15;;;4.65;;
41436;SDS011;27178;49.460;10.850;2024-02-16T14:46:49;5.15;;;4.70;;
41436;SDS011;27178;49.460;10.850;2024-02-16T14:49:18;4.57;;;4.15;;